Time;durP1;ratioP1;P1;durP2;ratioP2;P2;SDS_P1;SDS_P2;PMS_P1;PMS_P2;Temp;Humidity;BMP_temperature;BMP_pressure;BME280_temperature;BME280_humidity;BME280_pressure;Samples;Min_cycle;Max_cycle;Signal;HPM_P1;HPM_P2
2021/06/17 00:00:54;;;;;;;1999.90;999.90;;;21.00;99.90;;;;;;5053436;28;20170;-77
2021/06/17 00:03:20;;;;;;;1999.90;999.90;;;21.00;99.90;;;;;;5035285;28;20551;-77
2021/06/17 00:05:46;;;;;;;1999.90;999.90;;;20.90;99.90;;;;;;5053376;28;20173;-75
2021/06/17 00:08:12;;;;;;;1999.90;999.90;;;21.00;99.90;;;;;;5053610;28;20170;-78
2021/06/17 00:10:42;;;;;;;1999.90;999.90;;;20.90;99.90;;;;;;5052988;28;20208;-76
2021/06/17 00:13:20;;;;;;;1999.90;999.90;;;20.90;99.90;;;;;;5035153;28;20236;-76
2021/06/17 00:15:48;;;;;;;1999.90;999.90;;;20.90;99.90;;;;;;5035140;28;20227;-76
2021/06/17 00:18:14;;;;;;;1999.90;999.90;;;20.80;99.90;;;;;;5053006;28;20201;-77
2021/06/17 00:20:41;;;;;;;1999.90;999.90;;;20.70;99.90;;;;;;5052911;28;20166;-75
2021/06/17 00:23:08;;;;;;;1999.90;999.90;;;20.60;99.90;;;;;;5035008;28;20180;-75
2021/06/17 00:25:34;;;;;;;1999.90;999.90;;;20.60;99.90;;;;;;5102996;22;20244;-79
2021/06/17 00:27:59;;;;;;;1999.90;999.90;;;20.60;99.90;;;;;;5094201;28;20227;-78
2021/06/17 00:30:26;;;;;;;1999.90;999.90;;;20.70;99.90;;;;;;5093546;28;20192;-79
2021/06/17 00:32:52;;;;;;;1999.90;999.90;;;20.60;99.90;;;;;;5092558;28;20192;-78
2021/06/17 00:35:20;;;;;;;1999.90;999.90;;;20.60;99.90;;;;;;5082398;28;20197;-77
2021/06/17 00:37:46;;;;;;;1999.90;999.90;;;20.60;99.90;;;;;;5072959;28;20335;-78
2021/06/17 00:40:14;;;;;;;1999.90;999.90;;;20.50;99.90;;;;;;5072088;28;20260;-78
2021/06/17 00:42:43;;;;;;;1999.90;999.90;;;20.40;99.90;;;;;;5072821;28;20173;-79
2021/06/17 00:45:12;;;;;;;1999.90;999.90;;;20.40;99.90;;;;;;5074030;28;20204;-78
2021/06/17 00:47:38;;;;;;;1999.90;999.90;;;20.40;99.90;;;;;;5073423;28;20228;-80
2021/06/17 00:50:06;;;;;;;1999.90;999.90;;;20.30;99.90;;;;;;5055530;28;20656;-77
2021/06/17 00:52:32;;;;;;;1999.90;999.90;;;20.30;99.90;;;;;;5055827;28;20276;-77
2021/06/17 00:54:58;;;;;;;1999.90;999.90;;;20.30;99.90;;;;;;5054569;28;20747;-79
2021/06/17 00:57:25;;;;;;;1999.90;999.90;;;20.30;99.90;;;;;;5038818;28;20177;-79
2021/06/17 00:59:51;;;;;;;1999.90;999.90;;;20.20;99.90;;;;;;5072578;28;20644;-76
2021/06/17 01:02:16;;;;;;;1999.90;999.90;;;20.10;99.90;;;;;;5072951;28;20183;-79
2021/06/17 01:04:42;;;;;;;1999.90;999.90;;;20.10;99.90;;;;;;5055692;28;20630;-75
2021/06/17 01:07:09;;;;;;;1999.90;999.90;;;20.10;99.90;;;;;;5072867;28;20602;-77
2021/06/17 01:09:40;;;;;;;1999.90;999.90;;;20.10;99.90;;;;;;5055685;28;20223;-78
2021/06/17 01:12:32;;;;;;;1999.90;999.90;;;20.10;99.90;;;;;;5072983;28;20226;-78
2021/06/17 01:15:08;;;;;;;1999.90;999.90;;;20.00;99.90;;;;;;5073126;28;20197;-79
2021/06/17 01:17:39;;;;;;;1999.90;999.90;;;20.10;99.90;;;;;;5071850;28;20173;-75
2021/06/17 01:20:21;;;;;;;1999.90;999.90;;;20.10;99.90;;;;;;5072704;28;20179;-78
2021/06/17 01:22:51;;;;;;;1999.90;999.90;;;20.10;99.90;;;;;;5056098;28;20177;-79
2021/06/17 01:25:45;;;;;;;1999.90;999.90;;;20.00;99.90;;;;;;5054745;28;20220;-76
2021/06/17 01:28:18;;;;;;;1999.90;999.90;;;20.00;99.90;;;;;;5073770;28;20177;-79
2021/06/17 01:31:03;;;;;;;1999.90;999.90;;;19.90;99.90;;;;;;5073432;28;20179;-78
2021/06/17 01:33:35;;;;;;;1999.90;999.90;;;19.90;99.90;;;;;;5056629;28;20176;-79
2021/06/17 01:36:09;;;;;;;1999.90;999.90;;;19.80;99.90;;;;;;5072790;28;20193;-78
2021/06/17 01:38:36;;;;;;;1999.90;999.90;;;19.70;99.90;;;;;;5072529;28;20255;-80
2021/06/17 01:41:04;;;;;;;1999.90;999.90;;;19.70;99.90;;;;;;5071816;28;20177;-81
2021/06/17 01:43:31;;;;;;;1999.90;999.90;;;19.70;99.90;;;;;;5071327;28;20188;-78
2021/06/17 01:45:58;;;;;;;1999.90;999.90;;;19.80;99.90;;;;;;5071427;28;20192;-79
2021/06/17 01:48:26;;;;;;;1999.90;999.90;;;19.60;99.90;;;;;;5055785;28;20177;-79
2021/06/17 01:50:53;;;;;;;1999.90;999.90;;;19.60;99.90;;;;;;5072614;28;20173;-78
2021/06/17 01:53:22;;;;;;;1999.90;999.90;;;19.50;99.90;;;;;;5055711;28;20169;-78
2021/06/17 01:55:48;;;;;;;1999.90;999.90;;;19.40;99.90;;;;;;5074302;28;20201;-78
2021/06/17 01:58:15;;;;;;;1999.90;999.90;;;19.30;99.90;;;;;;5074474;28;20188;-77
2021/06/17 02:00:45;;;;;;;1999.90;999.90;;;19.40;99.90;;;;;;5074474;28;20176;-78
2021/06/17 02:03:11;;;;;;;1999.90;999.90;;;19.50;99.90;;;;;;5074626;28;20573;-78
2021/06/17 02:05:38;;;;;;;1999.90;999.90;;;19.40;99.90;;;;;;5074462;28;20197;-77
2021/06/17 02:08:07;;;;;;;1999.90;999.90;;;19.30;99.90;;;;;;5057268;28;20181;-78
2021/06/17 02:10:34;;;;;;;1999.90;999.90;;;19.30;99.90;;;;;;5074148;28;20188;-77
2021/06/17 02:13:01;;;;;;;1999.90;999.90;;;19.20;99.90;;;;;;5073303;28;20185;-78
2021/06/17 02:15:29;;;;;;;1999.90;999.90;;;19.10;99.90;;;;;;5055381;28;20197;-76
2021/06/17 02:17:57;;;;;;;1999.90;999.90;;;19.10;99.90;;;;;;5073120;28;20193;-77
2021/06/17 02:20:23;;;;;;;1999.90;999.90;;;19.20;99.90;;;;;;5071003;28;20614;-78
2021/06/17 02:22:51;;;;;;;1999.90;999.90;;;19.10;99.90;;;;;;5070941;28;20255;-78
2021/06/17 02:25:17;;;;;;;1999.90;999.90;;;19.10;99.90;;;;;;5070743;28;20219;-78
2021/06/17 02:27:45;;;;;;;1999.90;999.90;;;18.90;99.90;;;;;;5071397;28;20192;-78
2021/06/17 02:30:12;;;;;;;1999.90;999.90;;;18.80;99.90;;;;;;5072807;28;20173;-77
2021/06/17 02:32:50;;;;;;;1999.90;999.90;;;18.90;99.90;;;;;;5073366;28;20181;-77
2021/06/17 02:35:24;;;;;;;1999.90;999.90;;;18.90;99.90;;;;;;5072305;28;20197;-77
2021/06/17 02:37:54;;;;;;;1999.90;999.90;;;19.00;99.90;;;;;;5073493;28;20242;-78
2021/06/17 02:40:21;;;;;;;1999.90;999.90;;;19.00;99.90;;;;;;5073020;28;20173;-77
2021/06/17 02:42:49;;;;;;;1999.90;999.90;;;19.00;99.90;;;;;;5055217;28;20220;-78
2021/06/17 02:45:15;;;;;;;1999.90;999.90;;;19.00;99.90;;;;;;5073077;28;20321;-77
2021/06/17 02:47:41;;;;;;;1999.90;999.90;;;19.00;99.90;;;;;;5073902;28;20260;-79
2021/06/17 02:50:08;;;;;;;1999.90;999.90;;;18.90;99.90;;;;;;5072623;28;20268;-77
2021/06/17 02:52:34;;;;;;;1999.90;999.90;;;18.90;99.90;;;;;;5073208;28;20180;-78
2021/06/17 02:54:59;;;;;;;1999.90;999.90;;;18.90;99.90;;;;;;5072598;28;20195;-78
2021/06/17 02:57:34;;;;;;;1999.90;999.90;;;18.80;99.90;;;;;;5073052;28;20230;-78
2021/06/17 03:00:11;;;;;;;1999.90;999.90;;;18.80;99.90;;;;;;5072233;28;20169;-78
2021/06/17 03:03:01;;;;;;;1999.90;999.90;;;18.90;99.90;;;;;;5055043;28;20261;-79
2021/06/17 03:05:42;;;;;;;1999.90;999.90;;;18.80;99.90;;;;;;5075999;28;20679;-79
2021/06/17 03:08:21;;;;;;;1999.90;999.90;;;18.80;99.90;;;;;;5076555;28;20524;-78
2021/06/17 03:10:51;;;;;;;1999.90;999.90;;;18.70;99.90;;;;;;5076810;28;20176;-77
2021/06/17 03:13:20;;;;;;;1999.90;999.90;;;18.70;99.90;;;;;;5076514;28;20185;-77
2021/06/17 03:15:48;;;;;;;1999.90;999.90;;;18.60;99.90;;;;;;5076425;28;20291;-78
2021/06/17 03:18:17;;;;;;;1999.90;999.90;;;18.70;99.90;;;;;;5076097;28;20200;-78
2021/06/17 03:20:44;;;;;;;1999.90;999.90;;;18.60;99.90;;;;;;5058001;28;20932;-78
2021/06/17 03:23:17;;;;;;;1999.90;999.90;;;18.50;99.90;;;;;;5075912;28;20670;-77
2021/06/17 03:25:47;;;;;;;1999.90;999.90;;;18.40;99.90;;;;;;5076219;28;20223;-78
2021/06/17 03:28:14;;;;;;;1999.90;999.90;;;18.40;99.90;;;;;;5057896;28;20716;-79
2021/06/17 03:30:45;;;;;;;1999.90;999.90;;;18.40;99.90;;;;;;5076012;28;20177;-78
2021/06/17 03:33:13;;;;;;;1999.90;999.90;;;18.50;99.90;;;;;;5058587;28;20185;-77
2021/06/17 03:35:39;;;;;;;1999.90;999.90;;;18.50;99.90;;;;;;5074483;28;20205;-78
2021/06/17 03:38:08;;;;;;;1999.90;999.90;;;18.60;99.90;;;;;;5075762;28;20201;-77
2021/06/17 03:40:35;;;;;;;1999.90;999.90;;;18.60;99.90;;;;;;5057653;28;20177;-77
2021/06/17 03:43:03;;;;;;;1999.90;999.90;;;18.50;99.90;;;;;;5057533;28;20528;-77
2021/06/17 03:45:29;;;;;;;1999.90;999.90;;;18.40;99.90;;;;;;5076494;28;20256;-78
2021/06/17 03:47:56;;;;;;;1999.90;999.90;;;18.40;99.90;;;;;;5074740;28;20864;-79
2021/06/17 03:50:24;;;;;;;1999.90;999.90;;;18.30;99.90;;;;;;5057097;28;20255;-76
2021/06/17 03:52:52;;;;;;;1999.90;999.90;;;18.30;99.90;;;;;;5057492;28;20196;-77
2021/06/17 03:55:19;;;;;;;1999.90;999.90;;;18.30;99.90;;;;;;5076695;28;20201;-76
2021/06/17 03:57:52;;;;;;;1999.90;999.90;;;18.30;99.90;;;;;;5057907;28;20189;-77
2021/06/17 04:00:19;;;;;;;1999.90;999.90;;;18.30;99.90;;;;;;5076108;28;20169;-78
2021/06/17 04:02:45;;;;;;;1999.90;999.90;;;18.30;99.90;;;;;;5074304;28;20211;-77
2021/06/17 04:05:13;;;;;;;1999.90;999.90;;;18.30;99.90;;;;;;5077190;28;20192;-78
2021/06/17 04:07:42;;;;;;;1999.90;999.90;;;18.30;99.90;;;;;;5069878;28;20199;-77
2021/06/17 04:10:10;;;;;;;1999.90;999.90;;;18.40;99.90;;;;;;5058281;28;20809;-78
2021/06/17 04:12:38;;;;;;;1999.90;999.90;;;18.40;99.90;;;;;;5076462;28;20173;-78
2021/06/17 04:15:05;;;;;;;1999.90;999.90;;;18.60;99.90;;;;;;5058832;28;20200;-76
2021/06/17 04:17:43;;;;;;;1999.90;999.90;;;18.70;99.90;;;;;;5057541;28;20879;-77
2021/06/17 04:20:17;;;;;;;1999.90;999.90;;;18.70;99.90;;;;;;5077305;28;20181;-77
2021/06/17 04:22:46;;;;;;;1999.90;999.90;;;18.70;99.90;;;;;;5090196;28;20184;-76
2021/06/17 04:25:13;;;;;;;1999.90;999.90;;;18.70;99.90;;;;;;5073204;28;20209;-78
2021/06/17 04:27:40;;;;;;;1999.90;999.90;;;18.60;99.90;;;;;;5087684;28;20184;-77
2021/06/17 04:30:19;;;;;;;1999.90;999.90;;;18.60;99.90;;;;;;5062894;28;20181;-75
2021/06/17 04:32:47;;;;;;;1999.90;999.90;;;18.80;99.90;;;;;;5082796;28;20165;-78
2021/06/17 04:35:15;;;;;;;1999.90;999.90;;;18.90;99.90;;;;;;5076838;28;20667;-78
2021/06/17 04:37:42;;;;;;;1999.90;999.90;;;19.00;99.90;;;;;;5074171;28;20203;-78
2021/06/17 04:40:09;;;;;;;1999.90;999.90;;;19.00;99.90;;;;;;5075093;28;20646;-77
2021/06/17 04:42:35;;;;;;;1999.90;999.90;;;19.10;99.90;;;;;;5075710;28;20173;-78
2021/06/17 04:45:02;;;;;;;1999.90;999.90;;;19.20;99.90;;;;;;5074645;28;20200;-78
2021/06/17 04:47:27;;;;;;;1999.90;999.90;;;19.20;99.90;;;;;;5058833;28;20181;-77
2021/06/17 04:49:53;;;;;;;1999.90;999.90;;;19.20;99.90;;;;;;5075802;28;20196;-84
2021/06/17 04:52:40;;;;;;;1999.90;999.90;;;19.20;99.90;;;;;;5057498;28;20269;-83
2021/06/17 04:55:07;;;;;;;1999.90;999.90;;;19.40;99.90;;;;;;5056913;28;20193;-82
2021/06/17 04:57:32;;;;;;;1999.90;999.90;;;19.60;99.90;;;;;;5076771;28;20177;-83
2021/06/17 04:59:58;;;;;;;1999.90;999.90;;;19.70;99.90;;;;;;5076888;28;20709;-83
2021/06/17 05:02:24;;;;;;;1999.90;999.90;;;19.80;99.90;;;;;;5077078;28;20184;-83
2021/06/17 05:04:49;;;;;;;1999.90;999.90;;;19.90;99.90;;;;;;5076769;28;20201;-83
2021/06/17 05:12:26;;;;;;;1999.90;999.90;;;20.10;99.90;;;;;;5076517;28;20176;-82
2021/06/17 05:14:51;;;;;;;1999.90;999.90;;;20.30;99.90;;;;;;5058608;28;20197;-82
2021/06/17 05:17:17;;;;;;;1999.90;999.90;;;20.40;99.90;;;;;;5057619;28;20173;-83
2021/06/17 05:19:43;;;;;;;1999.90;999.90;;;20.50;99.90;;;;;;5077269;28;20216;-82
2021/06/17 05:22:10;;;;;;;1999.90;999.90;;;20.50;99.90;;;;;;5058545;28;20174;-82
2021/06/17 05:24:37;;;;;;;1999.90;999.90;;;20.60;99.90;;;;;;5076062;28;20224;-84
2021/06/17 05:27:03;;;;;;;1999.90;999.90;;;20.60;99.90;;;;;;5057815;28;20644;-82
2021/06/17 05:29:29;;;;;;;1999.90;999.90;;;20.70;99.90;;;;;;5076677;28;20552;-82
2021/06/17 05:31:56;;;;;;;1999.90;999.90;;;20.80;99.90;;;;;;5076765;28;20192;-83
2021/06/17 05:34:22;;;;;;;1999.90;999.90;;;20.90;99.90;;;;;;5058127;28;20205;-82
2021/06/17 05:36:48;;;;;;;1999.90;999.90;;;21.10;99.90;;;;;;5058593;28;20185;-82
2021/06/17 05:39:14;;;;;;;1999.90;999.90;;;21.20;99.90;;;;;;5076214;28;20249;-82
2021/06/17 05:41:40;;;;;;;1999.90;999.90;;;21.30;99.90;;;;;;5058827;28;20184;-82
2021/06/17 05:44:06;;;;;;;1999.90;999.90;;;21.40;99.90;;;;;;5075915;28;20181;-82
2021/06/17 05:46:33;;;;;;;1999.90;999.90;;;21.40;99.90;;;;;;5038137;28;20182;-83
2021/06/17 05:48:59;;;;;;;1999.90;999.90;;;21.50;99.90;;;;;;5066986;28;20185;-82
2021/06/17 05:51:25;;;;;;;1999.90;999.90;;;21.60;99.90;;;;;;5058456;28;20195;-82
2021/06/17 05:53:51;;;;;;;1999.90;999.90;;;21.60;99.90;;;;;;5076244;28;20213;-82
2021/06/17 05:56:18;;;;;;;1999.90;999.90;;;21.70;99.90;;;;;;5076697;28;20593;-82
2021/06/17 05:58:46;;;;;;;1999.90;999.90;;;21.80;99.90;;;;;;5076144;28;20193;-82
2021/06/17 06:01:11;;;;;;;1999.90;999.90;;;21.90;99.90;;;;;;5057925;28;20184;-83
2021/06/17 06:03:37;;;;;;;1999.90;999.90;;;22.00;99.90;;;;;;5058261;28;20173;-82
2021/06/17 06:06:03;;;;;;;1999.90;999.90;;;22.10;99.90;;;;;;5058062;28;20205;-83
2021/06/17 06:08:28;;;;;;;1999.90;999.90;;;22.20;99.90;;;;;;5076072;28;20168;-82
2021/06/17 06:10:54;;;;;;;1999.90;999.90;;;22.20;99.90;;;;;;5057457;28;20184;-82
2021/06/17 06:13:19;;;;;;;1999.90;999.90;;;22.20;99.90;;;;;;5075523;28;20185;-82
2021/06/17 06:15:45;;;;;;;1999.90;999.90;;;22.10;99.90;;;;;;5075359;28;20292;-82
2021/06/17 06:18:16;;;;;;;1999.90;999.90;;;22.20;99.90;;;;;;5056807;28;20273;-82
2021/06/17 06:20:45;;;;;;;1999.90;999.90;;;22.30;99.90;;;;;;5074212;28;20241;-82
2021/06/17 06:23:12;;;;;;;1999.90;999.90;;;22.40;99.90;;;;;;5076233;28;20176;-82
2021/06/17 06:25:45;;;;;;;1999.90;999.90;;;22.50;99.90;;;;;;5092624;22;20662;-83
2021/06/17 06:28:14;;;;;;;1999.90;999.90;;;22.50;99.90;;;;;;5082767;28;20243;-83
2021/06/17 06:30:51;;;;;;;1999.90;999.90;;;22.60;99.90;;;;;;5100735;28;20176;-83
2021/06/17 06:33:20;;;;;;;1999.90;999.90;;;22.60;99.90;;;;;;5100732;28;20247;-84
2021/06/17 06:35:47;;;;;;;1999.90;999.90;;;22.70;99.90;;;;;;5090652;28;20201;-83
2021/06/17 06:38:13;;;;;;;1999.90;999.90;;;22.70;99.90;;;;;;5079929;28;20199;-83
2021/06/17 06:40:44;;;;;;;1999.90;999.90;;;22.60;99.90;;;;;;5080309;28;20169;-83
2021/06/17 06:43:19;;;;;;;1999.90;999.90;;;22.70;99.90;;;;;;5080299;28;20301;-83
2021/06/17 06:45:46;;;;;;;1999.90;999.90;;;22.80;99.90;;;;;;5080244;28;20203;-83
2021/06/17 06:48:16;;;;;;;1999.90;999.90;;;22.90;99.90;;;;;;5061723;28;20177;-83
2021/06/17 06:50:42;;;;;;;1999.90;999.90;;;22.80;99.90;;;;;;5079717;28;20311;-83
2021/06/17 06:53:08;;;;;;;1999.90;999.90;;;22.90;99.90;;;;;;5079603;28;20231;-83
2021/06/17 06:55:34;;;;;;;1999.90;999.90;;;22.90;99.90;;;;;;5079583;28;20192;-83
2021/06/17 06:57:59;;;;;;;1999.90;999.90;;;23.10;99.90;;;;;;5078483;28;20196;-83
2021/06/17 07:00:25;;;;;;;1999.90;999.90;;;23.30;99.90;;;;;;5062313;28;20166;-83
2021/06/17 07:02:51;;;;;;;1999.90;999.90;;;23.50;99.90;;;;;;5079220;28;20169;-84
2021/06/17 07:05:16;;;;;;;1999.90;999.90;;;23.60;99.90;;;;;;5079251;28;20242;-83
2021/06/17 07:07:42;;;;;;;1999.90;999.90;;;23.70;99.90;;;;;;5079727;28;20184;-83
2021/06/17 07:10:09;;;;;;;1999.90;999.90;;;23.80;99.90;;;;;;5079050;28;20169;-83
2021/06/17 07:12:35;;;;;;;1999.90;999.90;;;23.90;99.90;;;;;;5061188;28;20208;-83
2021/06/17 07:15:01;;;;;;;1999.90;999.90;;;23.80;99.90;;;;;;5079897;28;20196;-82
2021/06/17 07:17:27;;;;;;;1999.90;999.90;;;23.70;99.90;;;;;;5061213;28;20162;-83
2021/06/17 07:19:57;;;;;;;1999.90;999.90;;;23.70;99.90;;;;;;5080040;28;20246;-83
2021/06/17 07:22:23;;;;;;;1999.90;999.90;;;23.80;99.90;;;;;;5079756;28;20165;-83
2021/06/17 07:24:49;;;;;;;1999.90;999.90;;;23.80;99.90;;;;;;5079211;28;20644;-83
2021/06/17 07:27:15;;;;;;;1999.90;999.90;;;23.90;99.90;;;;;;5079624;28;20173;-83
2021/06/17 07:29:41;;;;;;;1999.90;999.90;;;23.80;99.90;;;;;;5079220;28;20173;-83
2021/06/17 07:32:08;;;;;;;1999.90;999.90;;;24.00;99.90;;;;;;5061926;28;20173;-83
2021/06/17 07:34:35;;;;;;;1999.90;999.90;;;24.10;99.90;;;;;;5079531;28;20173;-84
2021/06/17 07:37:00;;;;;;;1999.90;999.90;;;24.30;99.90;;;;;;5079756;28;20183;-83
2021/06/17 07:39:26;;;;;;;1999.90;999.90;;;24.30;99.90;;;;;;5061528;28;20193;-83
2021/06/17 07:41:52;;;;;;;1999.90;999.90;;;24.40;99.90;;;;;;5061679;28;20191;-83
2021/06/17 07:44:18;;;;;;;1999.90;999.90;;;24.50;99.90;;;;;;5062519;28;20176;-83
2021/06/17 07:46:44;;;;;;;1999.90;999.90;;;24.50;99.90;;;;;;5080292;28;20678;-83
2021/06/17 07:49:09;;;;;;;1999.90;999.90;;;24.80;99.90;;;;;;5062208;28;20177;-83
2021/06/17 07:51:37;;;;;;;1999.90;999.90;;;24.80;99.90;;;;;;5083569;28;20169;-83
2021/06/17 07:54:03;;;;;;;1999.90;999.90;;;24.90;99.90;;;;;;5066244;28;20181;-84
2021/06/17 07:56:29;;;;;;;1999.90;999.90;;;25.00;99.90;;;;;;5083569;28;20200;-83
2021/06/17 07:58:56;;;;;;;1999.90;999.90;;;25.10;99.90;;;;;;5082897;28;20200;-83
2021/06/17 08:01:22;;;;;;;1999.90;999.90;;;25.40;99.90;;;;;;5082290;28;20165;-83
2021/06/17 08:03:49;;;;;;;1999.90;999.90;;;25.60;99.90;;;;;;5082572;28;20177;-83
2021/06/17 08:06:15;;;;;;;1999.90;999.90;;;25.70;99.90;;;;;;5082237;28;20185;-83
2021/06/17 08:08:41;;;;;;;1999.90;999.90;;;25.70;99.90;;;;;;5065202;28;20177;-83
2021/06/17 08:11:07;;;;;;;1999.90;999.90;;;25.90;99.90;;;;;;5082684;28;20184;-83
2021/06/17 08:13:32;;;;;;;1999.90;999.90;;;26.00;99.90;;;;;;5083077;28;20180;-83
2021/06/17 08:15:58;;;;;;;1999.90;999.90;;;25.90;99.90;;;;;;5061364;28;20562;-83
2021/06/17 08:18:24;;;;;;;1999.90;999.90;;;25.80;99.90;;;;;;5078260;28;20197;-83
2021/06/17 08:20:50;;;;;;;1999.90;999.90;;;25.70;99.90;;;;;;5065543;28;20173;-83
2021/06/17 08:23:19;;;;;;;1999.90;999.90;;;25.70;99.90;;;;;;5083575;28;20310;-83
2021/06/17 08:25:45;;;;;;;1999.90;999.90;;;25.80;99.90;;;;;;5073443;28;20569;-83
2021/06/17 08:28:10;;;;;;;1999.90;999.90;;;25.80;99.90;;;;;;5064243;28;20226;-83
2021/06/17 08:30:37;;;;;;;1999.90;999.90;;;25.90;99.90;;;;;;5082471;28;20188;-83
2021/06/17 08:33:03;;;;;;;1999.90;999.90;;;26.10;99.90;;;;;;5064667;28;20527;-83
2021/06/17 08:35:29;;;;;;;1999.90;999.90;;;26.20;99.90;;;;;;5083640;28;20223;-83
2021/06/17 08:37:55;;;;;;;1999.90;999.90;;;26.20;99.90;;;;;;5082565;28;20169;-83
2021/06/17 08:40:30;;;;;;;1999.90;999.90;;;26.40;99.90;;;;;;5065038;28;20237;-83
2021/06/17 08:42:57;;;;;;;1999.90;999.90;;;26.50;99.90;;;;;;5083095;28;20176;-83
2021/06/17 08:45:23;;;;;;;1999.90;999.90;;;26.60;99.90;;;;;;5078986;28;20250;-83
2021/06/17 08:47:49;;;;;;;1999.90;999.90;;;26.60;99.90;;;;;;5064023;28;20173;-83
2021/06/17 08:50:15;;;;;;;1999.90;999.90;;;26.60;99.90;;;;;;5065009;28;20239;-83
2021/06/17 08:52:43;;;;;;;1999.90;999.90;;;26.70;99.90;;;;;;5083395;28;20241;-83
2021/06/17 08:55:24;;;;;;;1999.90;999.90;;;26.80;99.90;;;;;;5082359;28;20288;-83
2021/06/17 08:57:52;;;;;;;1999.90;999.90;;;27.00;99.90;;;;;;5066231;28;20176;-83
2021/06/17 09:00:21;;;;;;;1999.90;999.90;;;27.00;99.90;;;;;;5084306;28;20161;-83
2021/06/17 09:03:17;;;;;;;1999.90;999.90;;;26.90;99.90;;;;;;5081839;28;20184;-83
2021/06/17 09:05:55;;;;;;;1999.90;999.90;;;26.90;99.90;;;;;;5083173;28;20752;-83
2021/06/17 09:08:27;;;;;;;1999.90;999.90;;;27.10;99.90;;;;;;5084146;28;20169;-84
2021/06/17 09:10:54;;;;;;;1999.90;999.90;;;27.30;99.90;;;;;;5084813;28;20180;-83
2021/06/17 09:13:20;;;;;;;1999.90;999.90;;;27.60;99.90;;;;;;5064984;28;20713;-83
2021/06/17 09:15:52;;;;;;;1999.90;999.90;;;27.70;99.90;;;;;;5065537;28;20275;-83
2021/06/17 09:18:38;;;;;;;1999.90;999.90;;;27.90;99.90;;;;;;5064631;28;20196;-83
2021/06/17 09:21:09;;;;;;;1999.90;999.90;;;27.90;99.90;;;;;;5064848;28;20169;-83
2021/06/17 09:23:37;;;;;;;1999.90;999.90;;;28.10;99.90;;;;;;5082642;28;20169;-83
2021/06/17 09:26:18;;;;;;;1999.90;999.90;;;28.20;99.90;;;;;;5064959;28;20216;-84
2021/06/17 09:28:47;;;;;;;1999.90;999.90;;;28.20;99.90;;;;;;5064963;28;20191;-84
2021/06/17 09:31:19;;;;;;;1999.90;999.90;;;28.30;99.90;;;;;;5083037;28;20184;-83
2021/06/17 09:33:46;;;;;;;1999.90;999.90;;;28.20;99.90;;;;;;5082696;28;20185;-84
2021/06/17 09:36:12;;;;;;;1999.90;999.90;;;28.40;99.90;;;;;;5064359;28;20682;-84
2021/06/17 09:38:52;;;;;;;1999.90;999.90;;;28.50;99.90;;;;;;5081409;28;20193;-83
2021/06/17 09:41:38;;;;;;;1999.90;999.90;;;28.70;99.90;;;;;;5080579;28;20516;-83
2021/06/17 09:44:06;;;;;;;1999.90;999.90;;;28.80;99.90;;;;;;5080302;28;20649;-83
2021/06/17 09:46:33;;;;;;;1999.90;999.90;;;28.80;99.90;;;;;;5063219;28;20208;-84
2021/06/17 09:49:09;;;;;;;1999.90;999.90;;;28.80;99.90;;;;;;5081112;28;20369;-83
2021/06/17 09:51:44;;;;;;;1999.90;999.90;;;28.90;99.90;;;;;;5080497;28;20176;-83
2021/06/17 09:54:20;;;;;;;1999.90;999.90;;;29.00;99.90;;;;;;5080297;28;20565;-83
2021/06/17 09:57:01;;;;;;;1999.90;999.90;;;29.10;99.90;;;;;;5080588;28;20591;-83
2021/06/17 09:59:46;;;;;;;1999.90;999.90;;;29.30;99.90;;;;;;5081335;28;20207;-83
2021/06/17 10:02:21;;;;;;;1999.90;999.90;;;29.50;99.90;;;;;;5081997;28;20183;-83
2021/06/17 10:04:47;;;;;;;1999.90;999.90;;;29.50;99.90;;;;;;5081688;28;20180;-83
2021/06/17 10:07:12;;;;;;;1999.90;999.90;;;29.70;99.90;;;;;;5081675;28;20180;-83
2021/06/17 10:09:38;;;;;;;1999.90;999.90;;;29.80;99.90;;;;;;5082183;28;20173;-83
2021/06/17 10:12:05;;;;;;;1999.90;999.90;;;29.70;99.90;;;;;;5081598;28;20204;-83
2021/06/17 10:14:31;;;;;;;1999.90;999.90;;;29.80;99.90;;;;;;5081269;28;20215;-83
2021/06/17 10:16:59;;;;;;;1999.90;999.90;;;29.80;99.90;;;;;;5081444;28;20235;-83
2021/06/17 10:19:25;;;;;;;1999.90;999.90;;;29.90;99.90;;;;;;5081767;28;20196;-83
2021/06/17 10:21:51;;;;;;;1999.90;999.90;;;30.00;99.90;;;;;;5081866;28;20256;-84
2021/06/17 10:24:20;;;;;;;1999.90;999.90;;;29.80;99.90;;;;;;5082080;28;20171;-83
2021/06/17 10:26:57;;;;;;;1999.90;999.90;;;29.80;99.90;;;;;;5063596;28;20219;-84
2021/06/17 10:29:36;;;;;;;1999.90;999.90;;;29.90;99.90;;;;;;5082266;28;20632;-83
2021/06/17 10:32:05;;;;;;;1999.90;999.90;;;29.90;99.90;;;;;;5081352;28;20183;-84
2021/06/17 10:34:35;;;;;;;1999.90;999.90;;;30.00;99.90;;;;;;5063373;28;20208;-84
2021/06/17 10:37:09;;;;;;;1999.90;999.90;;;30.30;99.90;;;;;;5082123;28;20216;-83
2021/06/17 10:39:43;;;;;;;1999.90;999.90;;;30.50;99.90;;;;;;5083580;28;20278;-84
2021/06/17 10:42:25;;;;;;;1999.90;999.90;;;30.60;99.90;;;;;;5067362;28;20177;-84
2021/06/17 10:45:00;;;;;;;1999.90;999.90;;;30.70;99.90;;;;;;5066231;28;20172;-84
2021/06/17 10:47:44;;;;;;;1999.90;999.90;;;30.40;99.80;;;;;;5083921;28;20176;-83
2021/06/17 10:50:15;;;;;;;1999.90;999.90;;;30.40;99.90;;;;;;5065006;28;20605;-83
2021/06/17 10:52:43;;;;;;;1999.90;999.90;;;30.60;99.90;;;;;;5083085;28;20173;-84
2021/06/17 10:55:12;;;;;;;1999.90;999.90;;;30.70;99.90;;;;;;5083250;28;20213;-83
2021/06/17 11:00:25;;;;;;;1999.90;999.90;;;31.00;99.90;;;;;;5082775;28;20211;-83
2021/06/17 11:02:55;;;;;;;1999.90;999.90;;;31.20;99.90;;;;;;5083293;28;20172;-84
2021/06/17 11:05:32;;;;;;;1999.90;999.90;;;31.20;99.90;;;;;;5064953;28;20208;-83
2021/06/17 11:08:16;;;;;;;1999.90;999.90;;;31.40;99.90;;;;;;5082273;28;20184;-83
2021/06/17 11:10:51;;;;;;;1999.90;999.90;;;31.50;99.90;;;;;;5082919;28;20161;-84
2021/06/17 11:13:51;;;;;;;1999.90;999.90;;;31.60;99.90;;;;;;5083308;28;20169;-84
2021/06/17 11:16:17;;;;;;;1999.90;999.90;;;31.70;99.90;;;;;;5083456;28;20612;-84
2021/06/17 11:18:44;;;;;;;1999.90;999.90;;;31.70;99.20;;;;;;5083573;28;20197;-84
2021/06/17 11:21:25;;;;;;;1999.90;999.90;;;31.70;98.30;;;;;;5083262;28;20169;-83
2021/06/17 11:23:52;;;;;;;1999.90;999.90;;;31.70;98.50;;;;;;5051623;28;20200;-83
2021/06/17 11:26:46;;;;;;;1999.90;999.90;;;31.70;98.10;;;;;;5086086;28;20209;-84
2021/06/17 11:29:14;;;;;;;1999.90;999.90;;;31.80;99.40;;;;;;5088349;28;20173;-84
2021/06/17 11:31:42;;;;;;;1999.90;999.90;;;31.70;99.00;;;;;;5087521;28;20181;-84
2021/06/17 11:34:36;;;;;;;1999.90;999.90;;;31.70;99.10;;;;;;5087869;28;20169;-84
2021/06/17 11:37:04;;;;;;;1999.90;999.90;;;31.80;99.90;;;;;;5087593;28;20181;-83
2021/06/17 11:39:33;;;;;;;1999.90;999.90;;;32.00;98.90;;;;;;5069499;28;20192;-83
2021/06/17 11:42:01;;;;;;;1999.90;999.90;;;32.10;99.10;;;;;;5087655;28;20173;-84
2021/06/17 11:44:27;;;;;;;1999.90;999.90;;;32.10;98.60;;;;;;5086255;28;20733;-84
2021/06/17 11:47:02;;;;;;;1999.90;999.90;;;32.30;98.40;;;;;;5087064;28;20204;-84
2021/06/17 11:49:33;;;;;;;1999.90;999.90;;;32.10;98.00;;;;;;5086890;28;20328;-84
2021/06/17 11:52:00;;;;;;;1999.90;999.90;;;32.10;97.70;;;;;;5069640;28;20185;-83
2021/06/17 11:54:26;;;;;;;1999.90;999.90;;;32.20;97.60;;;;;;5069224;28;20181;-84
2021/06/17 11:56:58;;;;;;;1999.90;999.90;;;32.30;97.40;;;;;;5086528;28;20200;-84
2021/06/17 11:59:31;;;;;;;1999.90;999.90;;;32.20;99.40;;;;;;5086696;28;20189;-84
2021/06/17 12:02:25;;;;;;;1999.90;999.90;;;32.30;99.20;;;;;;5086560;28;20180;-84
2021/06/17 12:05:05;;;;;;;1999.90;999.90;;;32.60;98.80;;;;;;5083499;28;20210;-83
2021/06/17 12:07:33;;;;;;;1999.90;999.90;;;32.50;97.90;;;;;;5084382;28;20646;-83
2021/06/17 12:10:09;;;;;;;1999.90;999.90;;;32.60;99.00;;;;;;5084251;28;20177;-83
2021/06/17 12:12:36;;;;;;;1999.90;999.90;;;32.60;98.80;;;;;;5066497;28;20173;-84
2021/06/17 12:15:03;;;;;;;1999.90;999.90;;;32.70;99.50;;;;;;5084825;28;20220;-84
2021/06/17 12:17:42;;;;;;;1999.90;999.90;;;32.80;99.90;;;;;;5083572;28;20226;-83